PWSweather.com
Personal Weather Stations
Station Observations
PHMDWX
Perry Hall, MD 21236

Perry Hall, MD 21236

Lat: 39.418318, Lon: -76.490039

Elevation: 305

Station Type: Davis Vantage Pro

Latest ConditionsUpdated 9:30:16 PM EDT Thursday, Jul 31, 2014
Currently Today's Max Today's Min Today's Average
Temperature 74.9°F23.8°C 78.8°F26.0°C 74.9°F23.8°C 77.1°F25.1°C
Dew Point 67.9°F19.9°C 67.9°F19.9°C 66.5°F19.2°C 67.3°F19.6°C
Winds Calm Calm 1.2 mph SE1.9 kmh SE - 0.5 mph 0.8 kmh
Wind Gusts -- 3.0 mph4.8 kmh - -
Humidity 79% 79% 66% 72%
Pressure 30.08 in1018.6 mb 30.08 in1018.6 mb 30.06 in1017.9 mb -
Hour Temp Dew Point Humidity Winds Wind Gusts Pressure Precip Precip Rate Daily Precip Total
07:30 PM 79.9°F26.6°C 66.2°F19.0°C 63% 2.0 mph E3.2 kmh E 3.0 mph4.8 kmh 30.06 in1017.9 mb 0.00 in0.0 mm 0.00 in/hr0.0 mm/hr 0.00 in0.0 mm
07:00 PM 80.7°F27.1°C 66.5°F19.2°C 62% 3.7 mph SE6.0 kmh SE 7.0 mph11.3 kmh 30.05 in1017.6 mb 0.00 in0.0 mm 0.00 in/hr0.0 mm/hr 0.00 in0.0 mm
06:30 PM 82.2°F27.9°C 67.4°F19.7°C 61% 0.4 mph E0.6 kmh E 2.0 mph3.2 kmh 30.05 in1017.6 mb 0.00 in0.0 mm 0.00 in/hr0.0 mm/hr 0.00 in0.0 mm
06:00 PM 82.6°F28.1°C 66.8°F19.3°C 59% 1.3 mph E2.1 kmh E 3.0 mph4.8 kmh 30.05 in1017.6 mb 0.00 in0.0 mm 0.00 in/hr0.0 mm/hr 0.00 in0.0 mm
05:30 PM 80.7°F27.1°C 66.0°F18.9°C 61% 0.9 mph E1.4 kmh E 3.0 mph4.8 kmh 30.05 in1017.6 mb 0.00 in0.0 mm 0.00 in/hr0.0 mm/hr 0.00 in0.0 mm
05:00 PM 80.1°F26.7°C 66.4°F19.1°C 63% 3.5 mph E5.6 kmh E 6.0 mph9.7 kmh 30.05 in1017.6 mb 0.00 in0.0 mm 0.00 in/hr0.0 mm/hr 0.00 in0.0 mm
04:30 PM 80.7°F27.1°C 66.9°F19.4°C 63% 4.1 mph ENE6.6 kmh ENE 6.0 mph9.7 kmh 30.05 in1017.6 mb 0.00 in0.0 mm 0.00 in/hr0.0 mm/hr 0.00 in0.0 mm
04:00 PM 82.2°F27.9°C 66.4°F19.1°C 59% 1.9 mph E3.1 kmh E 4.0 mph6.4 kmh 30.05 in1017.6 mb 0.00 in0.0 mm 0.00 in/hr0.0 mm/hr 0.00 in0.0 mm
03:30 PM 81.8°F27.7°C 67.0°F19.4°C 61% 4.2 mph E6.8 kmh E 8.0 mph12.9 kmh 30.05 in1017.6 mb 0.00 in0.0 mm 0.00 in/hr0.0 mm/hr 0.00 in0.0 mm
03:00 PM 82.4°F28.0°C 66.7°F19.3°C 59% 0.6 mph NE1.0 kmh NE 1.0 mph1.6 kmh 30.05 in1017.6 mb 0.00 in0.0 mm 0.00 in/hr0.0 mm/hr 0.00 in0.0 mm
02:30 PM 84.7°F29.3°C 62.8°F17.1°C 48% 1.8 mph SE2.9 kmh SE 2.0 mph3.2 kmh 30.05 in1017.6 mb 0.00 in0.0 mm 0.00 in/hr0.0 mm/hr 0.00 in0.0 mm
02:00 PM 84.7°F29.3°C 59.1°F15.1°C 42% 0.2 mph S0.3 kmh S 2.0 mph3.2 kmh 30.05 in1017.6 mb 0.00 in0.0 mm 0.00 in/hr0.0 mm/hr 0.00 in0.0 mm
01:30 PM 84.0°F28.9°C 59.7°F15.4°C 44% 0.9 mph NE1.4 kmh NE 2.0 mph3.2 kmh 30.05 in1017.6 mb 0.00 in0.0 mm 0.00 in/hr0.0 mm/hr 0.00 in0.0 mm
01:00 PM 85.1°F29.5°C 57.4°F14.1°C 39% 2.4 mph WSW3.9 kmh WSW 6.0 mph9.7 kmh 30.05 in1017.6 mb 0.00 in0.0 mm 0.00 in/hr0.0 mm/hr 0.00 in0.0 mm
12:30 PM 82.0°F27.8°C 60.4°F15.8°C 48% 0.6 mph NW1.0 kmh NW 1.0 mph1.6 kmh 30.06 in1017.9 mb 0.00 in0.0 mm 0.00 in/hr0.0 mm/hr 0.00 in0.0 mm
12:00 PM 79.8°F26.6°C 61.7°F16.5°C 54% 2.6 mph SE4.2 kmh SE 5.0 mph8.0 kmh 30.06 in1017.9 mb 0.00 in0.0 mm 0.00 in/hr0.0 mm/hr 0.00 in0.0 mm
11:30 AM 77.6°F25.3°C 61.2°F16.2°C 57% 2.8 mph SE4.5 kmh SE 5.0 mph8.0 kmh 30.07 in1018.3 mb 0.00 in0.0 mm 0.00 in/hr0.0 mm/hr 0.00 in0.0 mm
11:00 AM 76.1°F24.5°C 62.6°F17.0°C 63% 0.8 mph E1.3 kmh E 2.0 mph3.2 kmh 30.07 in1018.3 mb 0.00 in0.0 mm 0.00 in/hr0.0 mm/hr 0.00 in0.0 mm
10:30 AM 74.6°F23.7°C 61.6°F16.4°C 64% 3.8 mph ESE6.1 kmh ESE 5.0 mph8.0 kmh 30.06 in1017.9 mb 0.00 in0.0 mm 0.00 in/hr0.0 mm/hr 0.00 in0.0 mm
10:00 AM 72.3°F22.4°C 62.0°F16.7°C 70% 0.8 mph SSE1.3 kmh SSE 3.0 mph4.8 kmh 30.06 in1017.9 mb 0.00 in0.0 mm 0.00 in/hr0.0 mm/hr 0.00 in0.0 mm
09:30 AM 69.8°F21.0°C 63.0°F17.2°C 79% 0.2 mph W0.3 kmh W 1.0 mph1.6 kmh 30.07 in1018.3 mb 0.00 in0.0 mm 0.00 in/hr0.0 mm/hr 0.00 in0.0 mm
09:00 AM 66.9°F19.4°C 62.5°F16.9°C 86% 2.5 mph W4.0 kmh W 3.0 mph4.8 kmh 30.07 in1018.3 mb 0.00 in0.0 mm 0.00 in/hr0.0 mm/hr 0.00 in0.0 mm
08:30 AM 64.0°F17.8°C 62.5°F16.9°C 95% 0.1 mph WSW0.2 kmh WSW 1.0 mph1.6 kmh 30.07 in1018.3 mb 0.00 in0.0 mm 0.00 in/hr0.0 mm/hr 0.00 in0.0 mm
08:00 AM 62.1°F16.7°C 61.2°F16.2°C 97% Calm Calm -- 30.06 in1017.9 mb 0.00 in0.0 mm 0.00 in/hr0.0 mm/hr 0.00 in0.0 mm
07:30 AM 59.6°F15.3°C 59.0°F15.0°C 98% Calm Calm -- 30.06 in1017.9 mb 0.00 in0.0 mm 0.00 in/hr0.0 mm/hr 0.00 in0.0 mm
07:00 AM 58.3°F14.6°C 57.5°F14.2°C 97% Calm Calm -- 30.05 in1017.6 mb 0.00 in0.0 mm 0.00 in/hr0.0 mm/hr 0.00 in0.0 mm
06:30 AM 57.6°F14.2°C 56.8°F13.8°C 97% Calm Calm -- 30.05 in1017.6 mb 0.00 in0.0 mm 0.00 in/hr0.0 mm/hr 0.00 in0.0 mm
06:00 AM 57.8°F14.3°C 56.7°F13.7°C 96% Calm Calm -- 30.05 in1017.6 mb 0.00 in0.0 mm 0.00 in/hr0.0 mm/hr 0.00 in0.0 mm
05:30 AM 58.1°F14.5°C 57.0°F13.9°C 96% Calm Calm -- 30.04 in1017.3 mb 0.00 in0.0 mm 0.00 in/hr0.0 mm/hr 0.00 in0.0 mm
05:00 AM 58.6°F14.8°C 57.5°F14.2°C 96% Calm Calm -- 30.03 in1016.9 mb 0.00 in0.0 mm 0.00 in/hr0.0 mm/hr 0.00 in0.0 mm
04:30 AM 59.0°F15.0°C 57.9°F14.4°C 96% Calm Calm -- 30.02 in1016.6 mb 0.00 in0.0 mm 0.00 in/hr0.0 mm/hr 0.00 in0.0 mm
04:00 AM 59.3°F15.2°C 57.9°F14.4°C 95% Calm Calm -- 30.03 in1016.9 mb 0.00 in0.0 mm 0.00 in/hr0.0 mm/hr 0.00 in0.0 mm
03:30 AM 59.9°F15.5°C 58.5°F14.7°C 95% Calm Calm -- 30.03 in1016.9 mb 0.00 in0.0 mm 0.00 in/hr0.0 mm/hr 0.00 in0.0 mm
03:00 AM 60.2°F15.7°C 58.8°F14.9°C 95% Calm Calm -- 30.03 in1016.9 mb 0.00 in0.0 mm 0.00 in/hr0.0 mm/hr 0.00 in0.0 mm
02:30 AM 60.2°F15.7°C 58.8°F14.9°C 95% Calm Calm -- 30.04 in1017.3 mb 0.00 in0.0 mm 0.00 in/hr0.0 mm/hr 0.00 in0.0 mm
02:00 AM 59.9°F15.5°C 58.5°F14.7°C 95% 1.1 mph W1.8 kmh W 2.0 mph3.2 kmh 30.04 in1017.3 mb 0.00 in0.0 mm 0.00 in/hr0.0 mm/hr 0.00 in0.0 mm
01:30 AM 59.6°F15.3°C 57.9°F14.4°C 94% Calm Calm -- 30.03 in1016.9 mb 0.00 in0.0 mm 0.00 in/hr0.0 mm/hr 0.00 in0.0 mm
01:00 AM 60.1°F15.6°C 58.4°F14.7°C 94% Calm Calm -- 30.03 in1016.9 mb 0.00 in0.0 mm 0.00 in/hr0.0 mm/hr 0.00 in0.0 mm
12:30 AM 60.5°F15.8°C 58.5°F14.7°C 93% Calm Calm -- 30.02 in1016.6 mb 0.00 in0.0 mm 0.00 in/hr0.0 mm/hr 0.00 in0.0 mm
12:00 AM 61.4°F16.3°C 59.1°F15.1°C 92% Calm Calm -- 30.02 in1016.6 mb 0.00 in0.0 mm 0.00 in/hr0.0 mm/hr 0.00 in0.0 mm